createdAt,value
2023-05-06T00:01:26.318Z,53.96
2023-05-06T00:06:29.429Z,53.95
2023-05-06T00:11:31.870Z,54.27
2023-05-06T00:16:34.278Z,54.74
2023-05-06T00:21:36.645Z,54.82
2023-05-06T00:26:38.957Z,54.82
2023-05-06T00:31:41.543Z,55.10
2023-05-06T00:36:43.971Z,55.21
2023-05-06T00:41:46.551Z,55.36
2023-05-06T00:46:48.950Z,55.81
2023-05-06T00:51:52.552Z,56.05
2023-05-06T00:56:55.151Z,56.08
2023-05-06T01:01:58.485Z,56.11
2023-05-06T01:07:29.515Z,58.17
2023-05-06T01:12:42.975Z,56.65
2023-05-06T01:17:50.863Z,57.10
2023-05-06T01:22:54.141Z,57.32
2023-05-06T01:27:56.502Z,57.42
2023-05-06T01:33:05.384Z,58.94
2023-05-06T01:38:08.338Z,56.30
2023-05-06T01:43:13.678Z,58.12
2023-05-06T01:48:18.239Z,57.86
2023-05-06T01:53:20.664Z,58.14
2023-05-06T01:58:23.010Z,58.17
2023-05-06T02:03:25.469Z,58.52
2023-05-06T02:08:27.879Z,58.43
2023-05-06T02:13:30.379Z,58.77
2023-05-06T02:18:33.261Z,58.83
2023-05-06T02:23:35.690Z,59.23
2023-05-06T02:28:38.135Z,59.56
2023-05-06T02:33:40.447Z,59.71
2023-05-06T02:38:42.811Z,60.08
2023-05-06T02:43:45.208Z,60.30
2023-05-06T02:48:47.489Z,60.42
2023-05-06T02:53:49.828Z,60.54
2023-05-06T02:58:53.519Z,60.70
2023-05-06T03:03:55.849Z,60.30
2023-05-06T03:08:58.263Z,60.51
2023-05-06T03:14:00.740Z,60.51
2023-05-06T03:19:04.170Z,60.18
2023-05-06T03:24:07.687Z,60.11
2023-05-06T03:29:11.681Z,59.91
2023-05-06T03:34:14.602Z,60.17
2023-05-06T03:39:17.118Z,60.09
2023-05-06T03:44:21.133Z,60.35
2023-05-06T03:49:23.909Z,60.26
2023-05-06T03:54:26.263Z,60.13
2023-05-06T03:59:29.203Z,60.09
2023-05-06T04:04:33.332Z,59.72
2023-05-06T04:09:35.929Z,59.43
2023-05-06T04:14:42.273Z,59.43
2023-05-06T04:19:45.300Z,59.31
2023-05-06T04:24:47.885Z,59.09
2023-05-06T04:29:52.220Z,58.94
2023-05-06T04:34:54.848Z,59.13
2023-05-06T04:39:57.588Z,58.83
2023-05-06T04:45:01.125Z,58.86
2023-05-06T04:50:07.774Z,58.59
2023-05-06T04:55:11.842Z,58.79
2023-05-06T05:00:20.973Z,58.68
2023-05-06T05:05:24.601Z,58.85
2023-05-06T05:10:28.572Z,58.27
2023-05-06T05:15:31.046Z,58.32
2023-05-06T05:20:33.770Z,58.25
2023-05-06T05:25:38.790Z,58.19
2023-05-06T05:30:41.528Z,57.91
2023-05-06T05:35:44.972Z,57.74
2023-05-06T05:40:48.621Z,57.51
2023-05-06T05:45:51.260Z,57.47
2023-05-06T05:50:54.872Z,57.21
2023-05-06T05:55:57.289Z,56.78
2023-05-06T06:01:00.125Z,56.35
2023-05-06T06:06:02.759Z,56.10
2023-05-06T06:11:07.125Z,56.24
2023-05-06T06:16:13.851Z,55.25
2023-05-06T06:21:16.356Z,55.21
2023-05-06T06:26:19.223Z,54.77
2023-05-06T06:31:21.933Z,54.71
2023-05-06T06:36:24.547Z,54.36
2023-05-06T06:41:30.150Z,54.59
2023-05-06T06:46:32.633Z,53.67
2023-05-06T06:51:35.072Z,53.09
2023-05-06T06:56:37.555Z,52.89
2023-05-06T07:01:41.608Z,51.94
2023-05-06T07:06:44.022Z,52.02
2023-05-06T07:11:46.494Z,52.20
2023-05-06T07:16:51.362Z,51.52
2023-05-06T07:21:54.289Z,51.92
2023-05-06T07:27:01.734Z,52.00
2023-05-06T07:32:04.480Z,52.60
2023-05-06T07:37:08.372Z,51.94
2023-05-06T07:42:13.360Z,51.32
2023-05-06T07:47:26.807Z,51.41
2023-05-06T07:52:29.498Z,51.09
2023-05-06T07:57:31.839Z,50.31
2023-05-06T08:02:34.362Z,50.87
2023-05-06T08:07:37.281Z,49.14
2023-05-06T08:12:39.700Z,48.52
2023-05-06T08:17:42.204Z,48.89
2023-05-06T08:22:44.531Z,47.90
2023-05-06T08:27:47.244Z,47.05
2023-05-06T08:32:50.952Z,46.68
2023-05-06T08:37:53.357Z,46.60
2023-05-06T08:42:57.777Z,45.89
2023-05-06T08:48:00.780Z,45.34
2023-05-06T08:53:03.482Z,44.37
2023-05-06T08:58:07.632Z,43.57
2023-05-06T09:03:12.879Z,43.16
2023-05-06T09:08:18.214Z,42.83
2023-05-06T09:13:20.861Z,42.05
2023-05-06T09:18:23.640Z,42.08
2023-05-06T09:23:26.430Z,41.23
2023-05-06T09:28:33.308Z,40.49
2023-05-06T09:33:37.660Z,41.48
2023-05-06T09:38:41.726Z,41.36
2023-05-06T09:43:48.939Z,41.33
2023-05-06T09:48:52.948Z,40.42
2023-05-06T09:53:57.079Z,40.32
2023-05-06T09:59:01.682Z,40.21
2023-05-06T10:04:10.874Z,39.78
2023-05-06T10:09:13.928Z,40.20
2023-05-06T10:14:16.469Z,40.39
2023-05-06T10:19:22.997Z,39.13
2023-05-06T10:24:32.173Z,38.40
2023-05-06T10:29:36.575Z,39.11
2023-05-06T10:34:45.301Z,38.34
2023-05-06T10:39:48.071Z,38.67
2023-05-06T10:45:01.455Z,37.77
2023-05-06T10:50:33.049Z,37.98
2023-05-06T10:55:38.463Z,38.28
2023-05-06T11:00:54.196Z,37.01
2023-05-06T11:05:56.683Z,37.29
2023-05-06T11:10:59.199Z,36.33
2023-05-06T11:16:03.000Z,36.52
2023-05-06T11:21:08.725Z,36.00
2023-05-06T11:26:12.410Z,36.49
2023-05-06T11:31:15.559Z,36.56
2023-05-06T11:36:19.143Z,35.43
2023-05-06T11:41:23.153Z,35.05
2023-05-06T11:46:32.082Z,36.09
2023-05-06T11:51:34.507Z,36.78
2023-05-06T11:56:48.029Z,36.68
2023-05-06T12:07:11.380Z,35.94
2023-05-06T12:12:18.059Z,35.84
2023-05-06T12:17:21.989Z,35.47
2023-05-06T12:22:27.694Z,36.01
2023-05-06T12:27:33.532Z,36.55
2023-05-06T12:32:36.020Z,36.97
2023-05-06T12:37:38.358Z,37.20
2023-05-06T12:42:40.793Z,37.21
2023-05-06T12:47:56.443Z,36.08
2023-05-06T12:52:59.063Z,36.54
2023-05-06T12:58:01.539Z,36.56
2023-05-06T13:03:04.125Z,37.27
2023-05-06T13:08:08.600Z,38.09
2023-05-06T13:13:11.119Z,38.32
2023-05-06T13:18:13.595Z,38.31
2023-05-06T13:23:15.928Z,38.88
2023-05-06T13:28:18.374Z,38.50
2023-05-06T13:33:20.771Z,38.38
2023-05-06T13:38:23.270Z,38.64
2023-05-06T13:43:25.633Z,38.09
2023-05-06T13:48:27.937Z,37.94
2023-05-06T13:53:30.406Z,37.47
2023-05-06T13:58:32.873Z,37.29
2023-05-06T14:03:35.417Z,37.09
2023-05-06T14:08:37.880Z,36.93
2023-05-06T14:13:40.966Z,36.96
2023-05-06T14:18:44.349Z,36.89
2023-05-06T14:23:46.657Z,37.38
2023-05-06T14:28:49.055Z,36.91
2023-05-06T14:33:51.558Z,37.13
2023-05-06T14:38:53.820Z,37.40
2023-05-06T14:43:57.360Z,37.08
2023-05-06T14:48:59.673Z,37.34
2023-05-06T14:54:02.154Z,37.57
2023-05-06T14:59:04.552Z,37.50
2023-05-06T15:04:09.884Z,37.74
2023-05-06T15:09:12.165Z,37.65
2023-05-06T15:14:15.913Z,37.94
2023-05-06T15:19:18.283Z,38.35
2023-05-06T15:24:20.962Z,38.51
2023-05-06T15:29:23.428Z,38.62
2023-05-06T15:34:25.877Z,38.76
2023-05-06T15:39:28.762Z,39.17
2023-05-06T15:44:32.087Z,39.27
2023-05-06T15:49:51.443Z,39.66
2023-05-06T15:54:59.466Z,39.28
2023-05-06T16:00:02.626Z,39.42
2023-05-06T16:05:10.026Z,39.80
2023-05-06T16:10:12.693Z,39.93
2023-05-06T16:15:15.221Z,39.95
2023-05-06T16:20:17.611Z,39.95
2023-05-06T16:25:20.136Z,39.83
2023-05-06T16:30:23.630Z,39.72
2023-05-06T16:35:26.196Z,39.28
2023-05-06T16:40:29.073Z,39.50
2023-05-06T16:45:31.753Z,39.53
2023-05-06T16:50:35.582Z,39.78
2023-05-06T16:55:38.159Z,40.05
2023-05-06T17:00:40.763Z,39.88
2023-05-06T17:05:43.218Z,40.24
2023-05-06T17:10:46.438Z,40.53
2023-05-06T17:15:48.849Z,40.88
2023-05-06T17:20:56.385Z,41.42
2023-05-06T17:25:59.844Z,41.80
2023-05-06T17:31:02.310Z,42.39
2023-05-06T17:36:05.355Z,42.93
2023-05-06T17:41:07.969Z,43.32
2023-05-06T17:46:10.620Z,43.87
2023-05-06T17:51:13.029Z,44.30
2023-05-06T17:56:15.432Z,44.38
2023-05-06T18:01:17.864Z,44.74
2023-05-06T18:06:20.296Z,45.27
2023-05-06T18:11:22.784Z,45.45
2023-05-06T18:16:25.466Z,45.63
2023-05-06T18:21:28.248Z,45.94
2023-05-06T18:26:43.243Z,46.32
2023-05-06T18:31:47.033Z,46.53
2023-05-06T18:36:50.114Z,47.07
2023-05-06T18:41:52.756Z,47.53
2023-05-06T18:46:55.156Z,47.87
2023-05-06T18:51:58.110Z,48.23
2023-05-06T18:57:01.415Z,48.51
2023-05-06T19:02:05.242Z,48.60
2023-05-06T19:07:08.371Z,48.89
2023-05-06T19:12:10.840Z,49.09
2023-05-06T19:17:15.119Z,49.34
2023-05-06T19:22:17.673Z,49.58
2023-05-06T19:27:21.620Z,49.98
2023-05-06T19:32:24.074Z,50.22
2023-05-06T19:37:30.618Z,50.15
2023-05-06T19:42:34.304Z,50.73
2023-05-06T19:47:36.806Z,50.83
2023-05-06T19:52:39.200Z,50.96
2023-05-06T19:57:44.308Z,51.00
2023-05-06T20:02:46.921Z,51.36
2023-05-06T20:07:49.409Z,51.66
2023-05-06T20:12:51.783Z,51.93
2023-05-06T20:17:54.270Z,52.15
2023-05-06T20:22:56.778Z,52.22
2023-05-06T20:27:59.893Z,52.75
2023-05-06T20:33:02.330Z,52.68
2023-05-06T20:38:04.834Z,52.97
2023-05-06T20:43:13.138Z,53.99
2023-05-06T20:48:15.757Z,53.11
2023-05-06T20:53:18.185Z,53.43
2023-05-06T20:58:20.614Z,53.56
2023-05-06T21:03:24.490Z,53.63
2023-05-06T21:08:26.929Z,54.13
2023-05-06T21:13:29.220Z,54.29
2023-05-06T21:18:31.792Z,54.62
2023-05-06T21:23:37.181Z,54.47
2023-05-06T21:28:39.680Z,54.77
2023-05-06T21:33:42.075Z,55.03
2023-05-06T21:38:44.384Z,55.30
2023-05-06T21:43:46.759Z,55.33
2023-05-06T21:48:49.199Z,55.50
2023-05-06T21:53:53.415Z,55.80
2023-05-06T21:58:56.253Z,55.76
2023-05-06T22:03:58.729Z,56.08
2023-05-06T22:09:01.223Z,56.08
2023-05-06T22:14:03.952Z,56.23
2023-05-06T22:19:06.752Z,56.45
2023-05-06T22:24:09.408Z,56.53
2023-05-06T22:29:11.886Z,56.58
2023-05-06T22:34:14.173Z,56.46
2023-05-06T22:39:16.646Z,56.68
2023-05-06T22:44:18.913Z,56.84
2023-05-06T22:49:21.346Z,57.14
2023-05-06T22:54:24.328Z,57.06
2023-05-06T22:59:26.736Z,57.21
2023-05-06T23:04:29.114Z,57.59
2023-05-06T23:09:31.455Z,57.77
2023-05-06T23:14:33.704Z,57.53
2023-05-06T23:19:36.735Z,57.60
2023-05-06T23:24:39.042Z,57.81
2023-05-06T23:29:41.591Z,57.87
2023-05-06T23:34:44.053Z,58.42
2023-05-06T23:39:47.955Z,58.04
2023-05-06T23:44:50.276Z,58.29
2023-05-06T23:49:52.854Z,58.57
2023-05-06T23:54:55.168Z,58.88
2023-05-06T23:59:57.663Z,58.71
